createdAt,value
2022-08-05T00:00:16.650Z,795.20
2022-08-05T00:02:49.194Z,546.97
2022-08-05T00:06:02.984Z,792.73
2022-08-05T00:08:32.561Z,996.37
2022-08-05T00:11:00.555Z,780.03
2022-08-05T00:13:39.237Z,779.67
2022-08-05T00:16:12.386Z,991.87
2022-08-05T00:18:42.279Z,780.27
2022-08-05T00:21:10.315Z,306.83
2022-08-05T00:23:45.973Z,267.47
2022-08-05T00:26:22.522Z,780.87
2022-08-05T00:28:50.751Z,783.03
2022-08-05T00:31:53.156Z,780.83
2022-08-05T00:34:54.891Z,996.70
2022-08-05T00:37:11.883Z,782.13
2022-08-05T00:39:44.084Z,228.37
2022-08-05T00:42:31.727Z,997.40
2022-08-05T00:45:00.082Z,999.90
2022-08-05T00:47:52.952Z,765.37
2022-08-05T00:50:15.556Z,781.63
2022-08-05T00:52:45.379Z,970.83
2022-08-05T00:55:14.870Z,748.63
2022-08-05T00:57:55.717Z,755.80
2022-08-05T01:00:27.604Z,995.67
2022-08-05T01:02:55.574Z,759.33
2022-08-05T01:05:23.994Z,979.13
2022-08-05T01:08:40.847Z,760.23
2022-08-05T01:10:52.265Z,978.40
2022-08-05T01:13:27.558Z,765.83
2022-08-05T01:16:26.272Z,984.20
2022-08-05T01:19:00.633Z,766.30
2022-08-05T01:22:07.503Z,266.30
2022-08-05T01:24:58.597Z,993.90
2022-08-05T01:27:32.941Z,774.77
2022-08-05T01:30:04.887Z,993.50
2022-08-05T01:32:41.978Z,778.03
2022-08-05T01:35:51.318Z,302.90
2022-08-05T01:38:05.623Z,963.00
2022-08-05T01:40:34.244Z,783.03
2022-08-05T01:43:03.776Z,999.90
2022-08-05T01:45:34.865Z,775.10
2022-08-05T01:48:10.898Z,904.53
2022-08-05T01:50:40.362Z,776.17
2022-08-05T01:53:57.391Z,231.80
2022-08-05T01:56:10.703Z,762.43
2022-08-05T01:58:45.111Z,921.97
2022-08-05T02:01:15.595Z,777.57
2022-08-05T02:03:52.747Z,485.63
2022-08-05T02:06:37.096Z,995.53
2022-08-05T02:09:06.706Z,773.03
2022-08-05T02:11:42.192Z,775.43
2022-08-05T02:14:18.900Z,965.67
2022-08-05T02:16:52.306Z,990.33
2022-08-05T02:19:34.506Z,775.73
2022-08-05T02:22:06.804Z,487.30
2022-08-05T02:24:37.920Z,287.47
2022-08-05T02:27:09.913Z,999.90
2022-08-05T02:29:58.566Z,999.90
2022-08-05T02:32:31.435Z,784.83
2022-08-05T02:35:02.016Z,795.30
2022-08-05T02:37:42.515Z,999.90
2022-08-05T02:40:16.618Z,792.77
2022-08-05T02:42:44.815Z,791.23
2022-08-05T02:45:24.154Z,308.50
2022-08-05T02:48:06.656Z,789.57
2022-08-05T02:50:44.085Z,999.90
2022-08-05T02:53:16.010Z,792.50
2022-08-05T02:55:54.065Z,999.90
2022-08-05T02:58:23.276Z,996.77
2022-08-05T03:00:56.151Z,999.90
2022-08-05T03:03:25.462Z,791.67
2022-08-05T03:06:54.361Z,270.57
2022-08-05T03:08:43.149Z,794.50
2022-08-05T03:11:54.979Z,794.07
2022-08-05T03:14:09.401Z,864.67
2022-08-05T03:16:41.419Z,780.43
2022-08-05T03:19:12.912Z,786.73
2022-08-05T03:21:57.488Z,794.57
2022-08-05T03:24:29.379Z,128.77
2022-08-05T03:26:58.038Z,999.90
2022-08-05T03:29:45.088Z,991.33
2022-08-05T03:32:15.233Z,271.60
2022-08-05T03:34:50.428Z,270.97
2022-08-05T03:37:19.612Z,999.90
2022-08-05T03:39:58.796Z,783.50
2022-08-05T03:42:29.219Z,999.90
2022-08-05T03:44:59.692Z,786.60
2022-08-05T03:47:30.586Z,309.07
2022-08-05T03:50:04.520Z,787.10
2022-08-05T03:55:00.277Z,933.17
2022-08-05T03:56:06.183Z,789.33
2022-08-05T03:58:17.778Z,782.23
2022-08-05T04:00:51.410Z,779.70
2022-08-05T04:03:28.928Z,234.63
2022-08-05T04:05:59.213Z,785.93
2022-08-05T04:08:35.941Z,999.90
2022-08-05T04:11:07.237Z,999.90
2022-08-05T04:13:49.883Z,782.40
2022-08-05T04:16:25.011Z,996.23
2022-08-05T04:18:54.780Z,794.80
2022-08-05T04:22:10.286Z,790.33
2022-08-05T04:24:19.254Z,274.17
2022-08-05T04:26:50.590Z,792.10
2022-08-05T04:29:18.199Z,999.90
2022-08-05T04:31:48.474Z,781.97
2022-08-05T04:34:33.411Z,129.30
2022-08-05T04:37:03.539Z,999.90
2022-08-05T04:39:31.333Z,753.87
2022-08-05T04:42:00.435Z,124.97
2022-08-05T04:44:30.744Z,471.57
2022-08-05T04:46:59.374Z,757.27
2022-08-05T04:49:39.053Z,791.70
2022-08-05T04:52:16.236Z,999.90
2022-08-05T04:54:43.841Z,999.90
2022-08-05T04:57:11.559Z,771.57
2022-08-05T04:59:40.614Z,999.90
2022-08-05T05:02:36.841Z,994.20
2022-08-05T05:05:02.826Z,21.77
2022-08-05T05:07:35.621Z,900.10
2022-08-05T05:10:06.274Z,879.17
2022-08-05T05:12:34.315Z,682.93
2022-08-05T05:15:05.436Z,670.13
2022-08-05T05:17:56.882Z,322.07
2022-08-05T05:20:28.461Z,316.97
2022-08-05T05:22:58.392Z,999.90
2022-08-05T05:25:40.457Z,999.90
2022-08-05T05:28:08.906Z,999.90
2022-08-05T05:30:37.146Z,999.90
2022-08-05T05:33:14.170Z,762.70
2022-08-05T05:35:46.630Z,999.90
2022-08-05T05:38:22.851Z,766.47
2022-08-05T05:40:55.693Z,144.00
2022-08-05T05:43:54.002Z,144.07
2022-08-05T05:46:17.203Z,121.73
2022-08-05T05:48:47.739Z,123.80
2022-08-05T05:51:20.858Z,118.57
2022-08-05T05:53:57.977Z,61.17
2022-08-05T05:56:32.507Z,15.33
2022-08-05T05:59:03.113Z,50.43
2022-08-05T06:01:36.959Z,49.13
2022-08-05T06:04:06.785Z,46.07
2022-08-05T06:06:35.091Z,43.00
2022-08-05T06:09:04.903Z,52.40
2022-08-05T06:11:32.747Z,50.77
2022-08-05T06:14:00.690Z,40.07
2022-08-05T06:16:32.790Z,44.63
2022-08-05T06:19:05.661Z,41.53
2022-08-05T06:21:36.105Z,32.20
2022-08-05T06:24:12.248Z,34.23
2022-08-05T06:26:51.478Z,22.80
2022-08-05T06:29:43.283Z,53.80
2022-08-05T06:32:26.245Z,50.40
2022-08-05T06:34:56.702Z,32.33
2022-08-05T06:37:56.370Z,33.00
2022-08-05T06:40:18.237Z,65.27
2022-08-05T06:42:51.652Z,160.80
2022-08-05T06:45:20.729Z,68.23
2022-08-05T06:48:37.246Z,218.57
2022-08-05T06:50:36.724Z,675.47
2022-08-05T06:53:19.631Z,143.53
2022-08-05T06:55:53.315Z,23.00
2022-08-05T06:58:35.104Z,147.80
2022-08-05T07:01:05.413Z,150.33
2022-08-05T07:03:33.497Z,672.83
2022-08-05T07:06:05.831Z,16.97
2022-08-05T07:08:42.579Z,673.17
2022-08-05T07:11:15.211Z,74.23
2022-08-05T07:14:01.118Z,673.23
2022-08-05T07:17:59.722Z,24.47
2022-08-05T07:22:28.812Z,79.83
2022-08-05T07:24:59.580Z,96.50
2022-08-05T07:27:57.949Z,95.93
2022-08-05T07:30:32.544Z,84.73
2022-08-05T07:33:01.442Z,15.17
2022-08-05T07:36:02.247Z,13.77
2022-08-05T07:38:32.549Z,156.67
2022-08-05T07:41:17.184Z,16.33
2022-08-05T07:43:51.836Z,94.30
2022-08-05T07:46:25.121Z,90.93
2022-08-05T07:49:02.529Z,398.13
2022-08-05T07:51:48.625Z,167.57
2022-08-05T07:54:22.053Z,197.80
2022-08-05T07:57:13.611Z,162.67
2022-08-05T07:59:42.996Z,105.20
2022-08-05T08:02:16.203Z,52.73
2022-08-05T08:04:45.466Z,35.10
2022-08-05T08:07:13.562Z,73.73
2022-08-05T08:09:41.253Z,194.57
2022-08-05T08:12:30.561Z,171.10
2022-08-05T08:15:02.667Z,170.40
2022-08-05T08:17:31.495Z,445.70
2022-08-05T08:20:22.066Z,189.43
2022-08-05T08:22:52.042Z,170.07
2022-08-05T08:25:26.943Z,178.90
2022-08-05T08:28:07.390Z,501.17
2022-08-05T08:30:49.633Z,999.90
2022-08-05T08:33:17.709Z,15.43
2022-08-05T08:35:52.946Z,674.27
2022-08-05T08:38:35.108Z,483.73
2022-08-05T08:41:06.459Z,453.00
2022-08-05T08:45:19.669Z,156.40
2022-08-05T08:46:24.954Z,171.17
2022-08-05T08:49:06.134Z,172.33
2022-08-05T08:52:03.048Z,166.03
2022-08-05T08:54:32.315Z,573.53
2022-08-05T08:57:00.445Z,438.57
2022-08-05T08:59:33.847Z,145.90
2022-08-05T09:02:08.546Z,672.33
2022-08-05T09:04:58.093Z,152.70
2022-08-05T09:07:28.967Z,151.07
2022-08-05T09:10:08.118Z,275.10
2022-08-05T09:12:36.149Z,389.27
2022-08-05T09:15:06.406Z,105.30
2022-08-05T09:17:40.516Z,143.03
2022-08-05T09:20:10.744Z,25.73
2022-08-05T09:23:19.721Z,429.67
2022-08-05T09:26:01.375Z,999.90
2022-08-05T09:28:34.260Z,544.43
2022-08-05T09:31:23.442Z,381.23
2022-08-05T09:33:56.446Z,999.90
2022-08-05T09:36:27.322Z,999.90
2022-08-05T09:39:02.380Z,999.90
2022-08-05T09:41:33.151Z,999.90
2022-08-05T09:44:06.768Z,63.80
2022-08-05T09:46:35.510Z,999.90
2022-08-05T09:49:19.051Z,999.90
2022-08-05T09:51:49.637Z,533.97
2022-08-05T09:54:29.081Z,999.90
2022-08-05T09:56:57.582Z,999.90
2022-08-05T09:59:28.985Z,999.90
2022-08-05T10:02:02.851Z,999.90
2022-08-05T10:04:38.439Z,56.30
2022-08-05T10:07:20.175Z,530.10
2022-08-05T10:10:14.250Z,999.90
2022-08-05T10:12:50.428Z,999.90
2022-08-05T10:15:23.739Z,47.90
2022-08-05T10:18:12.632Z,249.27
2022-08-05T10:20:47.649Z,804.50
2022-08-05T10:23:34.495Z,843.90
2022-08-05T10:26:07.052Z,999.90
2022-08-05T10:28:36.547Z,999.90
2022-08-05T10:32:50.648Z,999.90
2022-08-05T10:33:54.096Z,325.57
2022-08-05T10:36:26.124Z,955.90
2022-08-05T10:39:00.570Z,965.73
2022-08-05T10:41:46.427Z,926.53
2022-08-05T10:44:18.575Z,947.33
2022-08-05T10:46:50.664Z,929.17
2022-08-05T10:49:26.770Z,339.00
2022-08-05T10:52:00.301Z,377.70
2022-08-05T10:54:56.378Z,277.70
2022-08-05T10:57:29.473Z,793.70
2022-08-05T11:00:19.725Z,770.80
2022-08-05T11:03:10.124Z,184.60
2022-08-05T11:06:15.866Z,346.47
2022-08-05T11:09:18.630Z,201.17
2022-08-05T11:11:54.073Z,252.37
2022-08-05T11:14:57.590Z,263.43
2022-08-05T11:17:57.478Z,31.87
2022-08-05T11:20:51.042Z,825.27
2022-08-05T11:24:05.570Z,674.00
2022-08-05T11:26:28.732Z,292.07
2022-08-05T11:29:12.006Z,429.73
2022-08-05T11:31:51.920Z,246.70
2022-08-05T11:34:37.444Z,244.80
2022-08-05T11:38:14.595Z,16.53
2022-08-05T11:40:00.570Z,744.90
2022-08-05T11:42:33.013Z,94.03
2022-08-05T11:45:14.183Z,276.47
2022-08-05T11:47:50.680Z,739.03
2022-08-05T11:50:22.603Z,255.83
2022-08-05T11:52:54.412Z,596.13
2022-08-05T11:55:31.762Z,381.30
2022-08-05T11:58:08.639Z,439.60
2022-08-05T12:00:39.085Z,671.43
2022-08-05T12:03:29.480Z,152.93
2022-08-05T12:06:05.896Z,450.87
2022-08-05T12:08:48.022Z,106.10
2022-08-05T12:11:20.571Z,161.97
2022-08-05T12:13:59.404Z,160.60
2022-08-05T12:16:29.142Z,160.47
2022-08-05T12:18:57.631Z,345.60
2022-08-05T12:21:30.271Z,160.97
2022-08-05T12:24:04.336Z,533.90
2022-08-05T12:26:33.490Z,456.37
2022-08-05T12:29:03.457Z,170.67
2022-08-05T12:31:43.663Z,170.10
2022-08-05T12:34:21.467Z,483.27
2022-08-05T12:36:53.208Z,538.13
2022-08-05T12:39:21.409Z,24.60
2022-08-05T12:41:49.055Z,536.27
2022-08-05T12:44:33.146Z,194.87
2022-08-05T12:47:02.307Z,194.57
2022-08-05T12:50:04.221Z,542.57
2022-08-05T12:52:33.924Z,392.83
2022-08-05T12:55:22.458Z,372.60
2022-08-05T12:58:52.684Z,345.43
2022-08-05T13:02:01.454Z,167.17
2022-08-05T13:03:33.512Z,411.83
2022-08-05T13:06:01.408Z,405.33
2022-08-05T13:08:30.109Z,529.13
2022-08-05T13:11:00.910Z,519.77
2022-08-05T13:14:06.342Z,524.23
2022-08-05T13:16:19.416Z,344.73
2022-08-05T13:18:52.442Z,675.33
2022-08-05T13:21:23.193Z,202.70
2022-08-05T13:23:56.274Z,543.67
2022-08-05T13:26:30.112Z,549.10
2022-08-05T13:28:59.255Z,76.90
2022-08-05T13:31:34.124Z,200.37
2022-08-05T13:34:24.102Z,710.67
2022-08-05T13:36:53.490Z,999.90
2022-08-05T13:40:14.549Z,308.00
2022-08-05T13:42:15.020Z,284.77
2022-08-05T13:44:45.428Z,834.87
2022-08-05T13:47:35.492Z,848.40
2022-08-05T13:50:04.751Z,814.00
2022-08-05T13:52:35.336Z,845.73
2022-08-05T13:55:07.382Z,290.43
2022-08-05T13:57:50.702Z,835.03
2022-08-05T14:00:26.968Z,801.73
2022-08-05T14:02:57.096Z,326.33
2022-08-05T14:05:29.324Z,330.47
2022-08-05T14:08:20.826Z,315.20
2022-08-05T14:11:03.190Z,878.07
2022-08-05T14:13:42.538Z,880.20
2022-08-05T14:16:11.792Z,319.47
2022-08-05T14:18:46.483Z,263.50
2022-08-05T14:22:08.435Z,278.13
2022-08-05T14:24:01.749Z,347.70
2022-08-05T14:26:35.798Z,276.40
2022-08-05T14:29:14.039Z,268.83
2022-08-05T14:32:03.971Z,796.47
2022-08-05T14:34:35.056Z,537.73
2022-08-05T14:37:03.259Z,999.90
2022-08-05T14:39:31.808Z,268.20
2022-08-05T14:42:19.437Z,759.77
2022-08-05T14:44:49.071Z,782.53
2022-08-05T14:47:16.760Z,18.07
2022-08-05T14:50:17.360Z,674.63
2022-08-05T14:52:52.900Z,270.33
2022-08-05T14:55:21.484Z,751.20
2022-08-05T14:57:54.380Z,18.40
2022-08-05T15:00:27.977Z,258.47
2022-08-05T15:02:57.192Z,675.17
2022-08-05T15:05:29.803Z,287.33
2022-08-05T15:08:58.104Z,294.83
2022-08-05T15:11:03.711Z,308.90
2022-08-05T15:13:46.176Z,311.23
2022-08-05T15:16:17.828Z,357.50
2022-08-05T15:18:47.026Z,146.87
2022-08-05T15:21:16.231Z,378.93
2022-08-05T15:23:48.791Z,19.03
2022-08-05T15:26:17.427Z,157.67
2022-08-05T15:28:59.910Z,17.77
2022-08-05T15:31:34.797Z,165.10
2022-08-05T15:34:18.486Z,397.17
2022-08-05T15:36:48.549Z,673.53
2022-08-05T15:40:59.594Z,550.07
2022-08-05T15:42:49.982Z,13.97
2022-08-05T15:44:51.436Z,179.90
2022-08-05T15:47:19.014Z,477.57
2022-08-05T15:49:59.129Z,477.57
2022-08-05T15:52:29.203Z,23.67
2022-08-05T15:55:16.751Z,671.93
2022-08-05T15:57:45.135Z,190.50
2022-08-05T16:00:13.701Z,469.47
2022-08-05T16:02:44.633Z,535.43
2022-08-05T16:05:12.517Z,527.00
2022-08-05T16:07:46.505Z,102.40
2022-08-05T16:10:14.363Z,312.57
2022-08-05T16:12:42.368Z,21.00
2022-08-05T16:15:10.906Z,139.97
2022-08-05T16:17:57.432Z,150.70
2022-08-05T16:20:25.908Z,17.13
2022-08-05T16:22:57.400Z,157.13
2022-08-05T16:25:34.078Z,164.63
2022-08-05T16:28:06.014Z,466.83
2022-08-05T16:30:35.989Z,16.27
2022-08-05T16:33:04.039Z,165.53
2022-08-05T16:35:33.610Z,483.53
2022-08-05T16:38:18.834Z,179.13
2022-08-05T16:40:59.732Z,24.47
2022-08-05T16:43:30.100Z,170.23
2022-08-05T16:46:04.703Z,186.53
2022-08-05T16:48:37.423Z,506.13
2022-08-05T16:51:09.709Z,457.00
2022-08-05T16:54:05.064Z,185.83
2022-08-05T16:56:29.098Z,433.47
2022-08-05T16:58:57.449Z,158.93
2022-08-05T17:01:25.289Z,476.27
2022-08-05T17:03:53.260Z,183.70
2022-08-05T17:06:24.730Z,179.90
2022-08-05T17:08:54.650Z,23.57
2022-08-05T17:11:25.363Z,175.03
2022-08-05T17:14:00.420Z,673.63
2022-08-05T17:16:36.415Z,485.53
2022-08-05T17:19:07.836Z,427.30
2022-08-05T17:21:39.690Z,220.60
2022-08-05T17:24:19.458Z,217.83
2022-08-05T17:26:58.852Z,20.63
2022-08-05T17:29:33.682Z,676.13
2022-08-05T17:32:11.521Z,592.50
2022-08-05T17:34:44.141Z,243.80
2022-08-05T17:37:29.435Z,632.50
2022-08-05T17:40:00.980Z,674.20
2022-08-05T17:42:30.171Z,235.73
2022-08-05T17:45:00.005Z,309.97
2022-08-05T17:47:28.055Z,625.47
2022-08-05T17:50:03.958Z,408.00
2022-08-05T17:52:32.531Z,236.20
2022-08-05T17:55:03.004Z,632.43
2022-08-05T17:57:30.800Z,234.80
2022-08-05T18:00:05.050Z,244.43
2022-08-05T18:02:34.104Z,562.57
2022-08-05T18:05:06.356Z,109.80
2022-08-05T18:07:41.193Z,216.57
2022-08-05T18:10:13.978Z,366.17
2022-08-05T18:12:48.337Z,351.40
2022-08-05T18:15:16.008Z,368.23
2022-08-05T18:17:59.134Z,385.13
2022-08-05T18:20:32.124Z,140.67
2022-08-05T18:23:08.713Z,164.90
2022-08-05T18:25:39.516Z,424.60
2022-08-05T18:28:12.380Z,195.77
2022-08-05T18:30:44.048Z,167.97
2022-08-05T18:33:13.511Z,24.23
2022-08-05T18:35:59.952Z,431.83
2022-08-05T18:38:30.559Z,154.60
2022-08-05T18:41:55.982Z,397.67
2022-08-05T18:43:48.592Z,165.87
2022-08-05T18:46:19.915Z,437.87
2022-08-05T18:48:51.950Z,184.50
2022-08-05T18:52:04.626Z,21.40
2022-08-05T18:54:25.304Z,15.90
2022-08-05T18:56:54.321Z,17.37
2022-08-05T18:59:42.966Z,18.37
2022-08-05T19:02:11.467Z,16.33
2022-08-05T19:05:02.642Z,19.60
2022-08-05T19:07:45.959Z,17.33
2022-08-05T19:10:14.693Z,15.40
2022-08-05T19:12:44.120Z,14.20
2022-08-05T19:15:56.648Z,16.77
2022-08-05T19:18:10.288Z,17.40
2022-08-05T19:20:43.560Z,16.77
2022-08-05T19:24:03.861Z,18.67
2022-08-05T19:26:03.130Z,18.03
2022-08-05T19:28:32.940Z,16.67
2022-08-05T19:31:01.348Z,16.17
2022-08-05T19:33:36.409Z,17.57
2022-08-05T19:36:06.224Z,21.43
2022-08-05T19:38:35.461Z,19.83
2022-08-05T19:41:07.339Z,17.97
2022-08-05T19:44:05.805Z,21.17
2022-08-05T19:46:29.763Z,20.60
2022-08-05T19:49:01.291Z,345.83
2022-08-05T19:52:05.949Z,348.23
2022-08-05T19:54:25.474Z,347.00
2022-08-05T19:56:58.856Z,344.07
2022-08-05T19:59:56.536Z,344.77
2022-08-05T20:02:17.600Z,344.10
2022-08-05T20:04:45.778Z,351.00
2022-08-05T20:07:14.131Z,346.40
2022-08-05T20:09:53.619Z,345.70
2022-08-05T20:12:23.506Z,343.77
2022-08-05T20:14:53.250Z,346.10
2022-08-05T20:17:23.439Z,344.50
2022-08-05T20:19:57.370Z,345.00
2022-08-05T20:22:27.044Z,343.87
2022-08-05T20:24:55.944Z,346.90
2022-08-05T20:27:27.292Z,343.97
2022-08-05T20:30:12.467Z,345.47
2022-08-05T20:32:45.009Z,346.67
2022-08-05T20:35:13.213Z,344.40
2022-08-05T20:38:06.806Z,345.97
2022-08-05T20:40:30.380Z,999.90
2022-08-05T20:43:00.456Z,999.90
2022-08-05T20:45:55.831Z,999.90
2022-08-05T20:48:17.163Z,999.90
2022-08-05T20:50:46.786Z,999.90
2022-08-05T20:53:16.352Z,999.90
2022-08-05T20:56:08.849Z,999.90
2022-08-05T20:58:37.195Z,999.90
2022-08-05T21:01:06.384Z,999.90
2022-08-05T21:03:34.962Z,999.90
2022-08-05T21:06:02.770Z,999.37
2022-08-05T21:08:42.306Z,774.83
2022-08-05T21:11:12.554Z,770.60
2022-08-05T21:13:56.479Z,999.90
2022-08-05T21:16:30.063Z,978.13
2022-08-05T21:19:00.286Z,771.73
2022-08-05T21:21:39.130Z,802.87
2022-08-05T21:24:12.736Z,959.70
2022-08-05T21:26:41.334Z,975.73
2022-08-05T21:29:12.517Z,999.90
2022-08-05T21:31:45.916Z,774.13
2022-08-05T21:34:15.730Z,773.83
2022-08-05T21:36:43.337Z,980.30
2022-08-05T21:39:16.828Z,776.17
2022-08-05T21:41:52.737Z,925.97
2022-08-05T21:44:27.110Z,935.60
2022-08-05T21:46:58.283Z,770.07
2022-08-05T21:49:58.545Z,976.20
2022-08-05T21:52:23.004Z,996.73
2022-08-05T21:54:55.375Z,975.83
2022-08-05T21:57:32.102Z,999.90
2022-08-05T22:00:10.749Z,961.43
2022-08-05T22:02:41.769Z,781.80
2022-08-05T22:05:10.873Z,512.07
2022-08-05T22:07:40.469Z,739.90
2022-08-05T22:10:26.903Z,772.30
2022-08-05T22:12:55.307Z,962.87
2022-08-05T22:16:00.482Z,770.07
2022-08-05T22:18:14.969Z,961.23
2022-08-05T22:20:42.952Z,778.53
2022-08-05T22:24:01.694Z,775.67
2022-08-05T22:26:34.643Z,774.83
2022-08-05T22:29:03.123Z,969.37
2022-08-05T22:31:31.568Z,856.10
2022-08-05T22:34:25.684Z,772.67
2022-08-05T22:36:58.525Z,999.90
2022-08-05T22:39:30.966Z,819.43
2022-08-05T22:42:10.963Z,877.23
2022-08-05T22:44:40.839Z,981.33
2022-08-05T22:47:11.826Z,973.20
2022-08-05T22:50:19.698Z,968.97
2022-08-05T22:52:32.303Z,770.47
2022-08-05T22:55:02.483Z,999.90
2022-08-05T22:57:36.401Z,811.90
2022-08-05T23:00:07.851Z,967.73
2022-08-05T23:02:39.899Z,970.77
2022-08-05T23:05:15.814Z,999.90
2022-08-05T23:07:45.121Z,944.47
2022-08-05T23:10:16.352Z,982.00
2022-08-05T23:12:48.136Z,781.57
2022-08-05T23:15:19.712Z,708.27
2022-08-05T23:18:00.876Z,866.40
2022-08-05T23:20:32.410Z,748.37
2022-08-05T23:23:00.180Z,878.63
2022-08-05T23:25:51.408Z,874.23
2022-08-05T23:28:18.619Z,775.07
2022-08-05T23:30:52.827Z,798.37
2022-08-05T23:34:02.605Z,940.37
2022-08-05T23:36:11.193Z,999.90
2022-08-05T23:38:41.807Z,854.47
2022-08-05T23:41:10.725Z,812.50
2022-08-05T23:44:06.284Z,947.57
2022-08-05T23:46:26.487Z,999.90
2022-08-05T23:48:59.876Z,999.90
2022-08-05T23:51:54.099Z,986.17
2022-08-05T23:54:26.056Z,999.90
2022-08-05T23:56:55.799Z,998.67
